< < Back
Terminal Aerodrome Forecast


Current Version              Previous Versions:   1  2  3  4  5  6  7  8  9  

Terminal Aerodrome Forecast

075
FTUS42 KCHS 231948 AAA
TAFSAV
TAF AMD
KSAV 231948Z 2320/2418 32007KT P6SM SCT060
     FM232130 VRB05KT P6SM SCT070
     FM240100 00000KT P6SM SKC
     FM241400 19006KT P6SM SCT045=



Latest METAR

778
SAUS80 KWBC 241300
MTRSAV
METAR KSAV 241253Z 05003KT 10SM FEW080 23/17 A3014 RMK AO2 SLP207
T02280167


USA.gov is the U.S. government's official web portal to all federal, state and local government web resources and services.